createdAt,value
2018-01-02T00:00:05.402Z,1001.39
2018-01-02T00:05:03.337Z,1001.55
2018-01-02T00:10:02.853Z,1001.54
2018-01-02T00:15:03.339Z,1001.48
2018-01-02T00:20:02.912Z,1001.55
2018-01-02T00:25:03.539Z,1001.6
2018-01-02T00:30:03.128Z,1001.69
2018-01-02T00:35:03.640Z,1001.75
2018-01-02T00:40:03.141Z,1001.86
2018-01-02T00:45:02.826Z,1001.9
2018-01-02T00:50:03.314Z,1001.97
2018-01-02T00:55:02.865Z,1001.99
2018-01-02T01:00:03.254Z,1002.08
2018-01-02T01:05:02.945Z,1002.02
2018-01-02T01:10:03.485Z,1002.09
2018-01-02T01:15:02.950Z,1002.12
2018-01-02T01:20:03.611Z,1002.31
2018-01-02T01:25:03.045Z,1002.42
2018-01-02T01:30:03.500Z,1002.51
2018-01-02T01:35:03.044Z,1002.67
2018-01-02T01:40:03.590Z,1002.8
2018-01-02T01:45:03.152Z,1002.9
2018-01-02T01:50:03.639Z,1002.93
2018-01-02T01:55:03.081Z,1003.02
2018-01-02T02:00:03.500Z,1003.08
2018-01-02T02:05:02.996Z,1003.12
2018-01-02T02:10:03.570Z,1003.16
2018-01-02T02:15:02.997Z,1003.22
2018-01-02T02:20:03.669Z,1003.23
2018-01-02T02:25:03.281Z,1003.25
2018-01-02T02:30:02.744Z,1003.36
2018-01-02T02:35:03.422Z,1003.39
2018-01-02T02:40:02.970Z,1003.42
2018-01-02T02:45:03.469Z,1003.37
2018-01-02T02:50:02.933Z,1003.46
2018-01-02T02:55:03.355Z,1003.5
2018-01-02T03:00:02.899Z,1003.59
2018-01-02T03:05:03.313Z,1003.63
2018-01-02T03:10:02.998Z,1003.65
2018-01-02T03:15:03.459Z,1003.67
2018-01-02T03:20:03.047Z,1003.73
2018-01-02T03:25:03.585Z,1003.76
2018-01-02T03:30:03.047Z,1003.82
2018-01-02T03:35:03.622Z,1003.9
2018-01-02T03:40:03.129Z,1003.96
2018-01-02T03:45:03.565Z,1003.97
2018-01-02T03:50:03.090Z,1004.02
2018-01-02T03:55:03.738Z,1003.99
2018-01-02T04:00:03.308Z,1004.16
2018-01-02T04:05:02.763Z,1004.21
2018-01-02T04:10:03.425Z,1004.39
2018-01-02T04:15:02.872Z,1004.39
2018-01-02T04:20:03.308Z,1004.46
2018-01-02T04:25:02.711Z,1004.49
2018-01-02T04:30:03.337Z,1004.72
2018-01-02T04:35:02.918Z,1004.88
2018-01-02T04:40:03.558Z,1004.82
2018-01-02T04:45:03.094Z,1004.93
2018-01-02T04:50:03.513Z,1004.98
2018-01-02T04:55:02.958Z,1005.02
2018-01-02T05:00:03.427Z,1005.13
2018-01-02T05:05:02.883Z,1005.3
2018-01-02T05:10:03.521Z,1005.37
2018-01-02T05:15:02.933Z,1005.47
2018-01-02T05:20:03.501Z,1005.53
2018-01-02T05:25:02.995Z,1005.6
2018-01-02T05:30:03.288Z,1005.72
2018-01-02T05:35:02.683Z,1005.88
2018-01-02T05:40:03.231Z,1005.93
2018-01-02T05:45:03.629Z,1006.02
2018-01-02T05:50:03.289Z,1006.07
2018-01-02T05:55:02.723Z,1006.11
2018-01-02T06:00:03.230Z,1006.18
2018-01-02T06:10:03.334Z,1006.43
2018-01-02T06:15:02.822Z,1006.52
2018-01-02T06:20:03.457Z,1006.61
2018-01-02T06:25:02.946Z,1006.57
2018-01-02T06:30:03.426Z,1006.64
2018-01-02T06:35:02.906Z,1006.74
2018-01-02T06:40:03.415Z,1006.76
2018-01-02T06:45:03.018Z,1006.77
2018-01-02T06:50:03.566Z,1006.87
2018-01-02T06:55:03.021Z,1006.97
2018-01-02T07:00:03.631Z,1007.12
2018-01-02T07:05:03.223Z,1007.15
2018-01-02T07:10:02.698Z,1007.25
2018-01-02T07:15:03.197Z,1007.25
2018-01-02T07:20:03.681Z,1007.39
2018-01-02T07:25:03.118Z,1007.45
2018-01-02T07:30:02.659Z,1007.58
2018-01-02T07:35:03.220Z,1007.72
2018-01-02T07:40:02.755Z,1007.84
2018-01-02T07:45:03.206Z,1008.04
2018-01-02T07:50:02.768Z,1008.17
2018-01-02T07:55:03.337Z,1008.23
2018-01-02T08:00:02.905Z,1008.32
2018-01-02T08:05:03.578Z,1008.45
2018-01-02T08:10:03.246Z,1008.65
2018-01-02T08:15:02.896Z,1008.64
2018-01-02T08:20:03.507Z,1008.81
2018-01-02T08:25:03.107Z,1008.76
2018-01-02T08:30:03.618Z,1008.98
2018-01-02T08:35:03.317Z,1009.04
2018-01-02T08:40:02.969Z,1009.09
2018-01-02T08:45:03.543Z,1009.17
2018-01-02T08:50:03.040Z,1009.29
2018-01-02T08:55:03.632Z,1009.28
2018-01-02T09:00:03.163Z,1009.41
2018-01-02T09:05:02.808Z,1009.31
2018-01-02T09:10:03.509Z,1009.45
2018-01-02T09:15:03.025Z,1009.46
2018-01-02T09:20:02.752Z,1009.52
2018-01-02T09:25:03.264Z,1009.52
2018-01-02T09:30:02.801Z,1009.63
2018-01-02T09:35:03.420Z,1009.76
2018-01-02T09:40:02.950Z,1009.78
2018-01-02T09:45:03.667Z,1009.86
2018-01-02T09:50:03.302Z,1009.9
2018-01-02T09:55:02.905Z,1009.91
2018-01-02T10:00:03.368Z,1009.97
2018-01-02T10:05:02.853Z,1010.07
2018-01-02T10:10:03.380Z,1010.16
2018-01-02T10:15:03.009Z,1010.16
2018-01-02T10:20:03.664Z,1010.14
2018-01-02T10:25:03.158Z,1010.09
2018-01-02T10:30:02.787Z,1010.07
2018-01-02T10:35:03.303Z,1010.21
2018-01-02T10:40:03.136Z,1010.27
2018-01-02T10:45:02.725Z,1010.15
2018-01-02T10:50:03.379Z,1010.28
2018-01-02T10:55:02.888Z,1010.32
2018-01-02T11:00:03.468Z,1010.44
2018-01-02T11:05:02.998Z,1010.35
2018-01-02T11:10:02.689Z,1010.38
2018-01-02T11:15:03.374Z,1010.42
2018-01-02T11:20:02.866Z,1010.3
2018-01-02T11:25:03.520Z,1010.37
2018-01-02T11:30:03.012Z,1010.42
2018-01-02T11:35:03.533Z,1010.36
2018-01-02T11:40:03.159Z,1010.29
2018-01-02T11:45:03.678Z,1010.27
2018-01-02T11:50:03.285Z,1010.23
2018-01-02T11:55:02.920Z,1010.2
2018-01-02T12:00:03.510Z,1010
2018-01-02T12:05:02.935Z,1009.98
2018-01-02T12:10:03.531Z,1009.89
2018-01-02T12:15:03.310Z,1009.79
2018-01-02T12:20:02.964Z,1009.64
2018-01-02T12:25:03.538Z,1009.56
2018-01-02T12:30:02.978Z,1009.68
2018-01-02T12:35:03.649Z,1009.78
2018-01-02T12:40:03.317Z,1009.77
2018-01-02T12:45:02.810Z,1009.72
2018-01-02T12:50:03.486Z,1009.82
2018-01-02T12:55:02.956Z,1009.83
2018-01-02T13:00:03.565Z,1009.97
2018-01-02T13:05:03.396Z,1009.71
2018-01-02T13:10:03.101Z,1009.79
2018-01-02T13:15:03.609Z,1009.73
2018-01-02T13:20:03.247Z,1009.54
2018-01-02T13:25:02.694Z,1009.66
2018-01-02T13:30:03.303Z,1009.9
2018-01-02T13:35:02.857Z,1009.92
2018-01-02T13:40:03.435Z,1009.8
2018-01-02T13:45:03.076Z,1009.76
2018-01-02T13:50:03.570Z,1009.67
2018-01-02T13:55:03.034Z,1009.77
2018-01-02T14:00:03.515Z,1009.74
2018-01-02T14:05:03.122Z,1009.6
2018-01-02T14:10:02.883Z,1009.57
2018-01-02T14:15:03.564Z,1009.53
2018-01-02T14:20:02.986Z,1009.41
2018-01-02T14:25:03.446Z,1009.25
2018-01-02T14:30:03.045Z,1009.17
2018-01-02T14:35:02.758Z,1009.18
2018-01-02T14:40:03.446Z,1008.92
2018-01-02T14:45:02.958Z,1009
2018-01-02T14:50:03.643Z,1009.01
2018-01-02T14:55:03.250Z,1008.9
2018-01-02T15:00:02.842Z,1009.1
2018-01-02T15:05:03.441Z,1008.95
2018-01-02T15:10:02.944Z,1009.01
2018-01-02T15:15:03.599Z,1008.92
2018-01-02T15:20:03.107Z,1009.02
2018-01-02T15:25:02.743Z,1008.84
2018-01-02T15:30:03.175Z,1008.91
2018-01-02T15:35:02.801Z,1008.82
2018-01-02T15:40:03.281Z,1008.92
2018-01-02T15:45:02.969Z,1008.86
2018-01-02T15:50:03.427Z,1008.67
2018-01-02T15:55:02.921Z,1008.56
2018-01-02T16:00:03.434Z,1008.36
2018-01-02T16:05:03.111Z,1008.31
2018-01-02T16:10:02.812Z,1008.11
2018-01-02T16:15:03.505Z,1007.98
2018-01-02T16:20:03.053Z,1007.98
2018-01-02T16:25:03.528Z,1007.77
2018-01-02T16:30:03.125Z,1007.71
2018-01-02T16:35:03.655Z,1007.5
2018-01-02T16:40:03.646Z,1007.45
2018-01-02T16:45:03.204Z,1007.24
2018-01-02T16:50:02.776Z,1007.27
2018-01-02T16:55:03.335Z,1007.23
2018-01-02T17:00:03.176Z,1007.44
2018-01-02T17:05:02.980Z,1007.26
2018-01-02T17:10:02.968Z,1007.19
2018-01-02T17:15:03.501Z,1007.02
2018-01-02T17:20:03.315Z,1007.08
2018-01-02T17:25:03.199Z,1007.07
2018-01-02T17:30:02.931Z,1007.02
2018-01-02T17:35:02.781Z,1006.78
2018-01-02T17:40:03.349Z,1006.53
2018-01-02T17:45:03.176Z,1006.49
2018-01-02T17:50:02.836Z,1006.43
2018-01-02T17:55:02.748Z,1006.33
2018-01-02T18:00:03.287Z,1006.38
2018-01-02T18:05:03.081Z,1006.41
2018-01-02T18:10:02.830Z,1006.12
2018-01-02T18:15:03.664Z,1006.07
2018-01-02T18:20:03.628Z,1005.91
2018-01-02T18:25:03.253Z,1005.71
2018-01-02T18:30:02.946Z,1005.64
2018-01-02T18:35:03.524Z,1005.51
2018-01-02T18:40:03.269Z,1005.35
2018-01-02T18:45:03.095Z,1005.3
2018-01-02T18:50:02.681Z,1005.22
2018-01-02T18:55:03.575Z,1005.33
2018-01-02T19:00:03.222Z,1005.19
2018-01-02T19:05:03.108Z,1004.86
2018-01-02T19:10:03.575Z,1004.6
2018-01-02T19:15:03.215Z,1004.52
2018-01-02T19:20:02.736Z,1004.32
2018-01-02T19:25:03.466Z,1004.13
2018-01-02T19:30:03.061Z,1004
2018-01-02T19:35:03.661Z,1003.82
2018-01-02T19:40:03.400Z,1003.67
2018-01-02T19:45:03.172Z,1003.54
2018-01-02T19:50:02.801Z,1003.26
2018-01-02T19:55:03.637Z,1003.19
2018-01-02T20:00:03.405Z,1003.25
2018-01-02T20:05:03.167Z,1002.92
2018-01-02T20:10:03.555Z,1002.95
2018-01-02T20:15:03.330Z,1002.93
2018-01-02T20:20:02.953Z,1002.91
2018-01-02T20:25:03.801Z,1002.79
2018-01-02T20:30:03.498Z,1002.7
2018-01-02T20:35:03.122Z,1002.74
2018-01-02T20:40:02.883Z,1002.23
2018-01-02T20:45:03.465Z,1002.19
2018-01-02T20:50:03.199Z,1002.06
2018-01-02T20:55:02.852Z,1002.21
2018-01-02T21:00:03.420Z,1002.07
2018-01-02T21:05:03.113Z,1001.71
2018-01-02T21:10:03.700Z,1001.77
2018-01-02T21:15:03.378Z,1001.28
2018-01-02T21:20:03.157Z,1001.16
2018-01-02T21:25:02.721Z,1001.15
2018-01-02T21:30:03.315Z,1001.16
2018-01-02T21:35:03.013Z,1000.81
2018-01-02T21:40:03.682Z,1000.71
2018-01-02T21:45:03.419Z,1000.41
2018-01-02T21:50:02.918Z,1000.15
2018-01-02T21:55:03.617Z,1000.02
2018-01-02T22:00:03.221Z,1000.09
2018-01-02T22:05:02.863Z,999.86
2018-01-02T22:10:03.500Z,999.67
2018-01-02T22:15:03.057Z,999.47
2018-01-02T22:20:02.721Z,999.35
2018-01-02T22:25:03.294Z,999.07
2018-01-02T22:30:02.935Z,999.12
2018-01-02T22:35:03.555Z,998.81
2018-01-02T22:40:03.079Z,998.4
2018-01-02T22:45:03.656Z,998.31
2018-01-02T22:50:03.062Z,998.15
2018-01-02T22:55:03.966Z,997.86
2018-01-02T23:00:03.477Z,997.91
2018-01-02T23:05:03.075Z,997.64
2018-01-02T23:10:02.804Z,997.61
2018-01-02T23:15:03.742Z,997.42
2018-01-02T23:20:03.651Z,997.33
2018-01-02T23:25:03.171Z,996.9
2018-01-02T23:30:02.730Z,996.74
2018-01-02T23:35:03.410Z,996.75
2018-01-02T23:40:03.086Z,996.55
2018-01-02T23:45:02.682Z,996.36
2018-01-02T23:50:03.354Z,996.41
2018-01-02T23:55:02.875Z,995.86
